createdAt,value
2022-11-13T00:00:35.707Z,21.2
2022-11-13T00:01:45.000Z,21.2
2022-11-13T00:02:55.000Z,21.2
2022-11-13T00:04:06.000Z,21.2
2022-11-13T00:05:16.000Z,21.2
2022-11-13T00:06:25.000Z,21.2
2022-11-13T00:07:35.419Z,21.2
2022-11-13T00:08:45.539Z,21.2
2022-11-13T00:09:55.000Z,21.2
2022-11-13T00:11:05.770Z,21.2
2022-11-13T00:12:15.883Z,21.2
2022-11-13T00:13:26.005Z,21.2
2022-11-13T00:14:36.119Z,21.2
2022-11-13T00:15:46.000Z,21.2
2022-11-13T00:16:56.352Z,21.2
2022-11-13T00:18:06.460Z,21.2
2022-11-13T00:19:16.000Z,21.2
2022-11-13T00:20:26.693Z,21.2
2022-11-13T00:21:35.000Z,21.2
2022-11-13T00:22:45.940Z,21.2
2022-11-13T00:23:56.000Z,21.2
2022-11-13T00:25:06.000Z,21.2
2022-11-13T00:26:16.289Z,21.2
2022-11-13T00:27:26.407Z,21.2
2022-11-13T00:28:36.000Z,21.2
2022-11-13T00:29:46.634Z,21.2
2022-11-13T00:30:56.000Z,21.2
2022-11-13T00:32:06.000Z,21.2
2022-11-13T00:33:16.000Z,21.2
2022-11-13T00:34:27.000Z,21.2
2022-11-13T00:35:37.220Z,21.2
2022-11-13T00:36:46.000Z,21.2
2022-11-13T00:37:56.465Z,21.2
2022-11-13T00:39:06.000Z,21.2
2022-11-13T00:40:16.000Z,21.2
2022-11-13T00:41:26.000Z,21.2
2022-11-13T00:42:36.927Z,21.2
2022-11-13T00:43:47.052Z,21.2
2022-11-13T00:44:57.000Z,21.2
2022-11-13T00:46:07.287Z,21.2
2022-11-13T00:47:17.396Z,21.2
2022-11-13T00:48:27.502Z,21.2
2022-11-13T00:49:37.620Z,21.2
2022-11-13T00:50:47.737Z,21.2
2022-11-13T00:51:56.869Z,21.2
2022-11-13T00:53:06.990Z,21.2
2022-11-13T00:54:17.000Z,21.2
2022-11-13T00:55:27.000Z,21.2
2022-11-13T00:56:37.000Z,21.2
2022-11-13T00:57:47.000Z,21.2
2022-11-13T00:58:57.000Z,21.2
2022-11-13T01:00:07.000Z,21.2
2022-11-13T01:01:17.000Z,21.2
2022-11-13T01:02:27.000Z,21.2
2022-11-13T01:03:38.026Z,21.2
2022-11-13T01:04:48.000Z,21.2
2022-11-13T01:05:58.000Z,21.2
2022-11-13T01:07:07.000Z,21.2
2022-11-13T01:08:17.000Z,21.2
2022-11-13T01:09:27.000Z,21.1
2022-11-13T01:10:37.000Z,21.1
2022-11-13T01:11:47.861Z,21.1
2022-11-13T01:12:57.970Z,21.1
2022-11-13T01:14:08.000Z,21.1
2022-11-13T01:15:18.210Z,21.1
2022-11-13T01:16:28.317Z,21.1
2022-11-13T01:17:38.436Z,21.1
2022-11-13T01:18:48.000Z,21.1
2022-11-13T01:19:58.665Z,21.1
2022-11-13T01:21:08.000Z,21.1
2022-11-13T01:22:17.000Z,21.1
2022-11-13T01:23:28.000Z,21.1
2022-11-13T01:24:38.000Z,21.1
2022-11-13T01:25:48.259Z,21.1
2022-11-13T01:26:58.384Z,21.1
2022-11-13T01:28:08.000Z,21.1
2022-11-13T01:29:18.000Z,21.1
2022-11-13T01:30:28.000Z,21.1
2022-11-13T01:31:38.000Z,21.1
2022-11-13T01:32:48.000Z,21.1
2022-11-13T01:33:59.077Z,21.1
2022-11-13T01:36:19.312Z,21.1
2022-11-13T01:37:28.000Z,21.1
2022-11-13T01:38:38.559Z,21.1
2022-11-13T01:39:48.672Z,21.1
2022-11-13T01:40:58.000Z,21.1
2022-11-13T01:42:08.000Z,21.1
2022-11-13T01:43:19.000Z,21.1
2022-11-13T01:44:29.000Z,21.1
2022-11-13T01:45:39.000Z,21.1
2022-11-13T01:46:49.000Z,21.1
2022-11-13T01:47:59.000Z,21.1
2022-11-13T01:49:09.612Z,21.1
2022-11-13T01:50:19.000Z,21.1
2022-11-13T01:51:29.000Z,21.1
2022-11-13T01:52:38.000Z,21.1
2022-11-13T01:53:49.000Z,21.1
2022-11-13T01:54:59.000Z,21.1
2022-11-13T01:56:09.000Z,21.1
2022-11-13T01:57:19.422Z,21.1
2022-11-13T01:58:29.545Z,21.1
2022-11-13T01:59:39.656Z,21.1
2022-11-13T02:00:49.000Z,21.1
2022-11-13T02:01:59.884Z,21.1
2022-11-13T02:03:10.000Z,21.1
2022-11-13T02:04:20.110Z,21.1
2022-11-13T02:05:30.000Z,21.1
2022-11-13T02:06:40.342Z,21.1
2022-11-13T02:07:49.000Z,21.1
2022-11-13T02:08:59.000Z,21
2022-11-13T02:10:09.000Z,21.1
2022-11-13T02:11:19.824Z,21.1
2022-11-13T02:12:29.939Z,21
2022-11-13T02:13:40.000Z,21
2022-11-13T02:14:50.181Z,21
2022-11-13T02:16:00.000Z,21
2022-11-13T02:17:10.000Z,21
2022-11-13T02:18:20.000Z,21
2022-11-13T02:19:30.634Z,21
2022-11-13T02:20:40.000Z,21
2022-11-13T02:21:50.000Z,21
2022-11-13T02:23:00.000Z,21
2022-11-13T02:24:10.114Z,21
2022-11-13T02:25:20.233Z,21
2022-11-13T02:26:30.000Z,21
2022-11-13T02:27:40.000Z,21
2022-11-13T02:28:50.577Z,21
2022-11-13T02:30:00.697Z,21
2022-11-13T02:31:10.808Z,21
2022-11-13T02:32:20.924Z,21
2022-11-13T02:33:31.000Z,21
2022-11-13T02:34:41.164Z,21
2022-11-13T02:35:51.000Z,21
2022-11-13T02:37:01.397Z,21
2022-11-13T02:38:10.536Z,21
2022-11-13T02:39:20.639Z,21
2022-11-13T02:40:30.000Z,21
2022-11-13T02:41:40.000Z,21
2022-11-13T02:42:50.000Z,21
2022-11-13T02:44:01.000Z,21
2022-11-13T02:45:11.000Z,21
2022-11-13T02:46:21.000Z,21
2022-11-13T02:47:31.000Z,21
2022-11-13T02:48:41.000Z,21
2022-11-13T02:49:51.000Z,21
2022-11-13T02:51:01.000Z,21
2022-11-13T02:52:11.000Z,21
2022-11-13T02:53:21.043Z,21
2022-11-13T02:54:31.000Z,21
2022-11-13T02:55:41.000Z,21
2022-11-13T02:56:51.000Z,21
2022-11-13T02:58:01.000Z,21
2022-11-13T02:59:11.647Z,21
2022-11-13T03:00:21.000Z,21
2022-11-13T03:01:31.856Z,21
2022-11-13T03:02:41.973Z,21
2022-11-13T03:03:52.000Z,21
2022-11-13T03:05:02.000Z,21
2022-11-13T03:06:12.000Z,21
2022-11-13T03:07:22.000Z,21
2022-11-13T03:08:31.565Z,21
2022-11-13T03:09:41.000Z,21
2022-11-13T03:10:51.802Z,21
2022-11-13T03:12:01.000Z,21
2022-11-13T03:13:12.000Z,21
2022-11-13T03:14:22.000Z,21
2022-11-13T03:15:31.000Z,21
2022-11-13T03:16:41.000Z,21
2022-11-13T03:17:51.000Z,21
2022-11-13T03:19:01.000Z,21
2022-11-13T03:20:11.762Z,21
2022-11-13T03:21:21.000Z,21
2022-11-13T03:22:31.000Z,21
2022-11-13T03:23:42.000Z,21
2022-11-13T03:24:52.000Z,20.9
2022-11-13T03:26:02.000Z,21
2022-11-13T03:27:12.000Z,21
2022-11-13T03:28:22.557Z,21
2022-11-13T03:29:32.000Z,20.9
2022-11-13T03:30:41.000Z,20.9
2022-11-13T03:31:51.000Z,21
2022-11-13T03:33:02.046Z,20.9
2022-11-13T03:34:12.161Z,20.9
2022-11-13T03:35:22.000Z,20.9
2022-11-13T03:36:32.000Z,20.9
2022-11-13T03:37:42.000Z,20.9
2022-11-13T03:38:52.000Z,20.9
2022-11-13T03:40:02.000Z,20.9
2022-11-13T03:41:12.861Z,20.9
2022-11-13T03:42:22.000Z,20.9
2022-11-13T03:43:33.094Z,20.9
2022-11-13T03:44:43.000Z,20.9
2022-11-13T03:45:52.000Z,20.9
2022-11-13T03:47:02.000Z,20.9
2022-11-13T03:48:12.000Z,20.9
2022-11-13T03:49:22.674Z,20.9
2022-11-13T03:50:32.796Z,20.9
2022-11-13T03:51:42.000Z,20.9
2022-11-13T03:52:53.021Z,20.9
2022-11-13T03:54:03.143Z,20.9
2022-11-13T03:55:13.261Z,20.9
2022-11-13T03:56:23.000Z,20.9
2022-11-13T03:57:33.483Z,20.9
2022-11-13T03:58:43.606Z,20.9
2022-11-13T03:59:53.714Z,20.9
2022-11-13T04:01:02.000Z,20.9
2022-11-13T04:02:12.968Z,20.9
2022-11-13T04:03:23.000Z,20.9
2022-11-13T04:04:33.000Z,20.9
2022-11-13T04:05:43.318Z,20.9
2022-11-13T04:06:53.434Z,20.9
2022-11-13T04:08:03.000Z,20.9
2022-11-13T04:09:13.000Z,20.9
2022-11-13T04:10:23.000Z,20.9
2022-11-13T04:11:33.000Z,20.9
2022-11-13T04:12:44.000Z,20.9
2022-11-13T04:13:54.000Z,20.9
2022-11-13T04:15:04.000Z,20.9
2022-11-13T04:16:13.369Z,20.9
2022-11-13T04:17:23.490Z,20.9
2022-11-13T04:18:33.601Z,20.9
2022-11-13T04:19:43.728Z,20.9
2022-11-13T04:20:53.000Z,20.9
2022-11-13T04:22:03.000Z,20.9
2022-11-13T04:23:14.000Z,20.9
2022-11-13T04:24:24.180Z,20.9
2022-11-13T04:25:34.000Z,20.9
2022-11-13T04:26:44.000Z,20.9
2022-11-13T04:27:54.000Z,20.9
2022-11-13T04:29:04.651Z,20.9
2022-11-13T04:30:14.000Z,20.9
2022-11-13T04:31:23.000Z,20.9
2022-11-13T04:32:34.008Z,20.9
2022-11-13T04:33:44.000Z,20.9
2022-11-13T04:34:54.000Z,20.9
2022-11-13T04:36:04.000Z,20.9
2022-11-13T04:37:14.000Z,20.9
2022-11-13T04:38:24.596Z,20.9
2022-11-13T04:39:34.000Z,20.8
2022-11-13T04:40:44.000Z,20.8
2022-11-13T04:41:54.000Z,20.8
2022-11-13T04:43:05.000Z,20.8
2022-11-13T04:44:15.181Z,20.9
2022-11-13T04:45:25.000Z,20.8
2022-11-13T04:46:34.000Z,20.8
2022-11-13T04:47:44.528Z,20.8
2022-11-13T04:48:54.000Z,20.8
2022-11-13T04:50:04.000Z,20.8
2022-11-13T04:51:14.000Z,20.8
2022-11-13T04:52:24.000Z,20.8
2022-11-13T04:53:35.000Z,20.8
2022-11-13T04:54:45.234Z,20.8
2022-11-13T04:55:55.000Z,20.8
2022-11-13T04:57:05.471Z,20.8
2022-11-13T04:58:15.571Z,20.8
2022-11-13T04:59:25.693Z,20.8
2022-11-13T05:00:35.000Z,20.8
2022-11-13T05:01:44.937Z,20.8
2022-11-13T05:02:55.000Z,20.8
2022-11-13T05:04:05.000Z,20.8
2022-11-13T05:05:15.000Z,20.8
2022-11-13T05:06:25.000Z,20.8
2022-11-13T05:07:35.000Z,20.8
2022-11-13T05:08:45.000Z,20.8
2022-11-13T05:09:55.757Z,20.8
2022-11-13T05:11:05.861Z,20.8
2022-11-13T05:12:15.975Z,20.8
2022-11-13T05:13:26.000Z,20.8
2022-11-13T05:14:36.000Z,20.8
2022-11-13T05:15:46.000Z,20.8
2022-11-13T05:16:55.463Z,20.8
2022-11-13T05:18:05.000Z,20.8
2022-11-13T05:19:15.688Z,20.8
2022-11-13T05:20:25.810Z,20.8
2022-11-13T05:21:35.000Z,20.8
2022-11-13T05:22:46.034Z,20.8
2022-11-13T05:23:56.000Z,20.8
2022-11-13T05:25:06.000Z,20.8
2022-11-13T05:26:16.000Z,20.8
2022-11-13T05:27:26.502Z,20.8
2022-11-13T05:28:36.000Z,20.8
2022-11-13T05:29:46.731Z,20.8
2022-11-13T05:30:56.845Z,20.8
2022-11-13T05:32:05.994Z,20.8
2022-11-13T05:33:16.100Z,20.8
2022-11-13T05:34:26.000Z,20.8
2022-11-13T05:35:36.333Z,20.8
2022-11-13T05:36:46.446Z,20.8
2022-11-13T05:37:56.563Z,20.8
2022-11-13T05:39:06.000Z,20.8
2022-11-13T05:41:26.000Z,20.8
2022-11-13T05:42:37.022Z,20.8
2022-11-13T05:43:47.137Z,20.8
2022-11-13T05:44:57.000Z,20.8
2022-11-13T05:46:07.000Z,20.8
2022-11-13T05:47:16.000Z,20.8
2022-11-13T05:48:26.000Z,20.8
2022-11-13T05:49:36.000Z,20.8
2022-11-13T05:50:46.000Z,20.8
2022-11-13T05:51:56.977Z,20.8
2022-11-13T05:53:07.094Z,20.8
2022-11-13T05:54:17.195Z,20.8
2022-11-13T05:55:27.311Z,20.8
2022-11-13T05:56:37.000Z,20.8
2022-11-13T05:57:47.000Z,20.7
2022-11-13T05:58:57.669Z,20.8
2022-11-13T06:00:07.789Z,20.8
2022-11-13T06:01:17.000Z,20.7
2022-11-13T06:02:27.000Z,20.8
2022-11-13T06:03:37.147Z,20.7
2022-11-13T06:04:47.261Z,20.7
2022-11-13T06:05:57.000Z,20.7
2022-11-13T06:07:07.000Z,20.7
2022-11-13T06:08:17.600Z,20.8
2022-11-13T06:09:27.000Z,20.7
2022-11-13T06:10:37.000Z,20.7
2022-11-13T06:11:47.000Z,20.7
2022-11-13T06:12:58.000Z,20.7
2022-11-13T06:14:08.000Z,20.7
2022-11-13T06:15:18.000Z,20.7
2022-11-13T06:16:28.420Z,20.7
2022-11-13T06:17:37.000Z,20.7
2022-11-13T06:18:47.665Z,20.7
2022-11-13T06:19:57.781Z,20.7
2022-11-13T06:21:07.000Z,20.7
2022-11-13T06:22:18.000Z,20.7
2022-11-13T06:23:28.127Z,20.7
2022-11-13T06:24:38.000Z,20.7
2022-11-13T06:25:48.360Z,20.7
2022-11-13T06:26:58.000Z,20.7
2022-11-13T06:28:08.000Z,20.7
2022-11-13T06:29:18.000Z,20.7
2022-11-13T06:30:28.000Z,20.7
2022-11-13T06:31:38.000Z,20.7
2022-11-13T06:32:48.070Z,20.7
2022-11-13T06:33:58.000Z,20.7
2022-11-13T06:35:08.299Z,20.7
2022-11-13T06:36:18.000Z,20.7
2022-11-13T06:37:28.000Z,20.7
2022-11-13T06:38:38.000Z,20.7
2022-11-13T06:39:48.773Z,20.7
2022-11-13T06:40:58.884Z,20.7
2022-11-13T06:42:08.998Z,20.7
2022-11-13T06:43:19.114Z,20.7
2022-11-13T06:44:29.000Z,20.7
2022-11-13T06:45:39.000Z,20.7
2022-11-13T06:46:49.000Z,20.7
2022-11-13T06:47:58.000Z,20.7
2022-11-13T06:49:08.000Z,20.7
2022-11-13T06:50:18.825Z,20.7
2022-11-13T06:51:28.000Z,20.7
2022-11-13T06:52:39.000Z,20.7
2022-11-13T06:53:49.000Z,20.7
2022-11-13T06:54:59.000Z,20.7
2022-11-13T06:56:09.000Z,20.7
2022-11-13T06:57:19.532Z,20.7
2022-11-13T06:58:29.000Z,20.7
2022-11-13T06:59:39.000Z,20.7
2022-11-13T07:00:49.000Z,20.7
2022-11-13T07:01:59.985Z,20.7
2022-11-13T07:03:09.000Z,20.6
2022-11-13T07:04:19.000Z,20.7
2022-11-13T07:05:29.000Z,20.7
2022-11-13T07:06:39.000Z,20.6
2022-11-13T07:07:49.585Z,20.6
2022-11-13T07:08:59.000Z,20.6
2022-11-13T07:10:08.834Z,20.7
2022-11-13T07:11:18.952Z,20.6
2022-11-13T07:12:29.000Z,20.6
2022-11-13T07:13:39.180Z,20.6
2022-11-13T07:14:49.000Z,20.6
2022-11-13T07:15:59.000Z,20.6
2022-11-13T07:17:09.000Z,20.6
2022-11-13T07:18:19.000Z,20.6
2022-11-13T07:19:29.764Z,20.6
2022-11-13T07:20:39.000Z,20.6
2022-11-13T07:21:49.000Z,20.6
2022-11-13T07:23:00.105Z,20.6
2022-11-13T07:24:10.000Z,20.6
2022-11-13T07:25:19.360Z,20.6
2022-11-13T07:26:29.478Z,20.6
2022-11-13T07:27:39.000Z,20.6
2022-11-13T07:28:49.000Z,20.6
2022-11-13T07:29:59.823Z,20.6
2022-11-13T07:31:09.000Z,20.6
2022-11-13T07:32:20.000Z,20.6
2022-11-13T07:33:30.168Z,20.6
2022-11-13T07:34:40.280Z,20.6
2022-11-13T07:35:50.396Z,20.6
2022-11-13T07:37:00.513Z,20.6
2022-11-13T07:38:10.635Z,20.6
2022-11-13T07:39:20.747Z,20.6
2022-11-13T07:40:29.000Z,20.6
2022-11-13T07:41:40.000Z,20.6
2022-11-13T07:42:50.111Z,20.6
2022-11-13T07:44:00.227Z,20.6
2022-11-13T07:45:10.348Z,20.6
2022-11-13T07:46:20.000Z,20.6
2022-11-13T07:47:30.000Z,20.6
2022-11-13T07:48:40.695Z,20.6
2022-11-13T07:49:50.803Z,20.6
2022-11-13T07:51:00.000Z,20.6
2022-11-13T07:52:11.000Z,20.6
2022-11-13T07:53:21.222Z,20.6
2022-11-13T07:54:31.348Z,20.6
2022-11-13T07:55:40.470Z,20.6
2022-11-13T07:56:50.000Z,20.6
2022-11-13T07:58:00.000Z,20.6
2022-11-13T07:59:10.822Z,20.6
2022-11-13T08:00:20.938Z,20.6
2022-11-13T08:01:31.054Z,20.6
2022-11-13T08:02:41.000Z,20.6
2022-11-13T08:03:51.000Z,20.6
2022-11-13T08:05:01.000Z,20.6
2022-11-13T08:06:11.000Z,20.6
2022-11-13T08:07:21.632Z,20.6
2022-11-13T08:08:31.000Z,20.6
2022-11-13T08:09:41.863Z,20.6
2022-11-13T08:10:51.000Z,20.6
2022-11-13T08:12:01.113Z,20.6
2022-11-13T08:13:11.000Z,20.6
2022-11-13T08:14:21.000Z,20.6
2022-11-13T08:15:31.463Z,20.6
2022-11-13T08:16:41.000Z,20.6
2022-11-13T08:17:51.000Z,20.6
2022-11-13T08:19:01.000Z,20.6
2022-11-13T08:20:11.929Z,20.6
2022-11-13T08:21:22.047Z,20.6
2022-11-13T08:22:32.000Z,20.6
2022-11-13T08:23:42.000Z,20.6
2022-11-13T08:24:52.000Z,20.6
2022-11-13T08:26:01.526Z,20.6
2022-11-13T08:27:11.650Z,20.6
2022-11-13T08:28:21.000Z,20.6
2022-11-13T08:29:31.864Z,20.6
2022-11-13T08:30:41.000Z,20.6
2022-11-13T08:31:52.000Z,20.6
2022-11-13T08:33:02.218Z,20.6
2022-11-13T08:34:12.000Z,20.6
2022-11-13T08:36:32.000Z,20.6
2022-11-13T08:37:42.678Z,20.6
2022-11-13T08:38:52.803Z,20.6
2022-11-13T08:40:02.000Z,20.6
2022-11-13T08:41:12.000Z,20.6
2022-11-13T08:42:22.000Z,20.6
2022-11-13T08:43:32.270Z,20.6
2022-11-13T08:44:42.000Z,20.6
2022-11-13T08:45:52.000Z,20.6
2022-11-13T08:47:02.000Z,20.6
2022-11-13T08:48:12.735Z,20.6
2022-11-13T08:49:22.000Z,20.6
2022-11-13T08:50:32.000Z,20.6
2022-11-13T08:51:43.084Z,20.6
2022-11-13T08:52:53.199Z,20.6
2022-11-13T08:54:03.000Z,20.6
2022-11-13T08:55:13.436Z,20.6
2022-11-13T08:56:22.000Z,20.6
2022-11-13T08:57:32.000Z,20.6
2022-11-13T08:58:42.000Z,20.6
2022-11-13T08:59:52.000Z,20.6
2022-11-13T09:01:03.000Z,20.6
2022-11-13T09:02:13.000Z,20.6
2022-11-13T09:03:23.000Z,20.6
2022-11-13T09:04:33.000Z,20.7
2022-11-13T09:05:43.000Z,20.7
2022-11-13T09:06:53.000Z,20.7
2022-11-13T09:08:03.000Z,20.7
2022-11-13T09:09:13.000Z,20.7
2022-11-13T09:10:23.954Z,20.7
2022-11-13T09:11:33.086Z,20.7
2022-11-13T09:12:43.000Z,20.7
2022-11-13T09:13:53.000Z,20.7
2022-11-13T09:15:03.000Z,20.7
2022-11-13T09:16:13.547Z,20.7
2022-11-13T09:17:23.000Z,20.7
2022-11-13T09:18:33.000Z,20.7
2022-11-13T09:19:43.897Z,20.7
2022-11-13T09:20:54.010Z,20.7
2022-11-13T09:22:04.000Z,20.7
2022-11-13T09:23:14.000Z,20.7
2022-11-13T09:24:24.000Z,20.7
2022-11-13T09:25:34.477Z,20.7
2022-11-13T09:26:43.607Z,20.7
2022-11-13T09:27:53.722Z,20.7
2022-11-13T09:29:03.849Z,20.7
2022-11-13T09:30:13.000Z,20.7
2022-11-13T09:31:24.000Z,20.7
2022-11-13T09:32:34.193Z,20.7
2022-11-13T09:33:44.000Z,20.8
2022-11-13T09:34:54.000Z,20.8
2022-11-13T09:36:04.000Z,20.8
2022-11-13T09:37:14.000Z,20.8
2022-11-13T09:38:24.774Z,20.8
2022-11-13T09:39:34.884Z,20.8
2022-11-13T09:40:45.002Z,20.8
2022-11-13T09:41:54.000Z,20.8
2022-11-13T09:43:04.000Z,20.8
2022-11-13T09:44:14.369Z,20.8
2022-11-13T09:45:24.484Z,20.8
2022-11-13T09:46:34.610Z,20.8
2022-11-13T09:47:44.715Z,20.8
2022-11-13T09:48:54.825Z,20.8
2022-11-13T09:50:04.942Z,20.8
2022-11-13T09:51:15.064Z,20.8
2022-11-13T09:52:25.177Z,20.8
2022-11-13T09:53:35.000Z,20.9
2022-11-13T09:54:45.000Z,20.9
2022-11-13T09:55:55.528Z,20.9
2022-11-13T09:57:04.000Z,20.9
2022-11-13T09:58:14.766Z,20.9
2022-11-13T09:59:24.894Z,20.9
2022-11-13T10:00:35.005Z,20.9
2022-11-13T10:01:45.000Z,20.9
2022-11-13T10:02:55.240Z,20.9
2022-11-13T10:04:05.000Z,20.9
2022-11-13T10:05:15.000Z,20.9
2022-11-13T10:06:25.000Z,20.9
2022-11-13T10:07:35.000Z,20.9
2022-11-13T10:08:45.000Z,20.9
2022-11-13T10:09:55.932Z,20.9
2022-11-13T10:11:06.000Z,21
2022-11-13T10:12:15.000Z,21
2022-11-13T10:13:25.294Z,21
2022-11-13T10:14:35.405Z,21
2022-11-13T10:15:45.000Z,21
2022-11-13T10:16:55.000Z,21
2022-11-13T10:18:05.000Z,21
2022-11-13T10:19:15.874Z,21
2022-11-13T10:20:25.986Z,21
2022-11-13T10:21:36.000Z,21
2022-11-13T10:22:46.223Z,21
2022-11-13T10:23:56.000Z,21
2022-11-13T10:25:06.000Z,21
2022-11-13T10:26:16.566Z,21
2022-11-13T10:27:25.000Z,21.1
2022-11-13T10:28:35.000Z,21.1
2022-11-13T10:29:45.000Z,21.1
2022-11-13T10:30:56.000Z,21.1
2022-11-13T10:32:06.163Z,21.1
2022-11-13T10:33:16.000Z,21.1
2022-11-13T10:34:26.000Z,21.1
2022-11-13T10:35:36.000Z,21.1
2022-11-13T10:36:46.000Z,21.1
2022-11-13T10:37:56.746Z,21.1
2022-11-13T10:39:06.000Z,21.2
2022-11-13T10:40:16.000Z,21.1
2022-11-13T10:41:27.000Z,21.2
2022-11-13T10:42:36.000Z,21.2
2022-11-13T10:43:46.000Z,21.2
2022-11-13T10:44:56.000Z,21.2
2022-11-13T10:46:06.578Z,21.2
2022-11-13T10:47:16.000Z,21.2
2022-11-13T10:48:26.000Z,21.2
2022-11-13T10:49:37.001Z,21.2
2022-11-13T10:50:47.122Z,21.3
2022-11-13T10:51:57.238Z,21.2
2022-11-13T10:53:07.359Z,21.3
2022-11-13T10:54:17.463Z,21.3
2022-11-13T10:55:27.582Z,21.3
2022-11-13T10:56:37.708Z,21.3
2022-11-13T10:57:46.000Z,21.3
2022-11-13T10:58:56.949Z,21.3
2022-11-13T11:00:07.000Z,21.3
2022-11-13T11:01:17.000Z,21.4
2022-11-13T11:02:27.293Z,21.4
2022-11-13T11:03:37.000Z,21.4
2022-11-13T11:04:46.000Z,21.4
2022-11-13T11:05:56.657Z,21.4
2022-11-13T11:07:06.000Z,21.5
2022-11-13T11:08:16.889Z,21.5
2022-11-13T11:09:27.007Z,21.5
2022-11-13T11:10:37.000Z,21.6
2022-11-13T11:11:47.000Z,21.6
2022-11-13T11:12:57.352Z,21.6
2022-11-13T11:14:07.000Z,21.7
2022-11-13T11:15:17.000Z,21.7
2022-11-13T11:16:27.702Z,21.7
2022-11-13T11:17:37.000Z,21.8
2022-11-13T11:18:47.000Z,21.8
2022-11-13T11:19:57.063Z,21.8
2022-11-13T11:21:07.000Z,21.8
2022-11-13T11:22:17.000Z,21.8
2022-11-13T11:23:27.409Z,21.9
2022-11-13T11:24:37.526Z,21.9
2022-11-13T11:25:47.000Z,21.9
2022-11-13T11:26:57.000Z,21.9
2022-11-13T11:28:07.891Z,21.9
2022-11-13T11:29:17.000Z,22
2022-11-13T11:30:28.000Z,22
2022-11-13T11:31:38.000Z,22
2022-11-13T11:32:48.336Z,22
2022-11-13T11:33:58.000Z,22
2022-11-13T11:36:17.000Z,22.1
2022-11-13T11:37:27.000Z,22.1
2022-11-13T11:38:37.000Z,22.1
2022-11-13T11:39:48.055Z,22.1
2022-11-13T11:40:58.167Z,22.1
2022-11-13T11:42:08.279Z,22.2
2022-11-13T11:43:18.000Z,22.2
2022-11-13T11:44:28.000Z,22.2
2022-11-13T11:45:38.000Z,22.2
2022-11-13T11:46:48.000Z,22.2
2022-11-13T11:47:58.000Z,22.2
2022-11-13T11:49:08.975Z,22.2
2022-11-13T11:50:18.108Z,22.3
2022-11-13T11:51:28.000Z,22.3
2022-11-13T11:52:38.345Z,22.3
2022-11-13T11:53:48.000Z,22.3
2022-11-13T11:54:58.573Z,22.3
2022-11-13T11:56:08.692Z,22.3
2022-11-13T11:57:18.807Z,22.3
2022-11-13T11:58:28.000Z,22.3
2022-11-13T11:59:39.000Z,22.3
2022-11-13T12:00:49.152Z,22.3
2022-11-13T12:01:59.000Z,22.3
2022-11-13T12:03:09.000Z,22.4
2022-11-13T12:04:19.512Z,22.4
2022-11-13T12:05:28.000Z,22.4
2022-11-13T12:06:38.000Z,22.4
2022-11-13T12:07:48.000Z,22.4
2022-11-13T12:08:58.980Z,22.4
2022-11-13T12:10:09.000Z,22.4
2022-11-13T12:11:19.217Z,22.4
2022-11-13T12:12:29.329Z,22.4
2022-11-13T12:13:39.000Z,22.4
2022-11-13T12:14:49.000Z,22.4
2022-11-13T12:15:59.677Z,22.4
2022-11-13T12:17:09.790Z,22.4
2022-11-13T12:18:19.000Z,22.4
2022-11-13T12:19:30.000Z,22.4
2022-11-13T12:20:39.160Z,22.4
2022-11-13T12:21:49.270Z,22.4
2022-11-13T12:22:59.000Z,22.4
2022-11-13T12:24:09.000Z,22.4
2022-11-13T12:25:19.618Z,22.4
2022-11-13T12:26:29.000Z,22.4
2022-11-13T12:27:39.000Z,22.4
2022-11-13T12:28:49.970Z,22.4
2022-11-13T12:30:00.000Z,22.4
2022-11-13T12:31:10.000Z,22.4
2022-11-13T12:32:20.000Z,22.4
2022-11-13T12:33:30.000Z,22.4
2022-11-13T12:34:40.000Z,22.4
2022-11-13T12:35:49.000Z,22.4
2022-11-13T12:36:59.000Z,22.4
2022-11-13T12:38:09.911Z,22.4
2022-11-13T12:39:20.000Z,22.4
2022-11-13T12:40:30.142Z,22.4
2022-11-13T12:41:40.000Z,22.4
2022-11-13T12:42:50.000Z,22.4
2022-11-13T12:44:00.000Z,22.4
2022-11-13T12:45:10.000Z,22.4
2022-11-13T12:46:20.722Z,22.4
2022-11-13T12:47:30.849Z,22.4
2022-11-13T12:48:40.000Z,22.4
2022-11-13T12:49:51.000Z,22.4
2022-11-13T12:51:00.000Z,22.4
2022-11-13T12:52:10.000Z,22.5
2022-11-13T12:53:20.000Z,22.5
2022-11-13T12:54:30.000Z,22.5
2022-11-13T12:55:40.000Z,22.5
2022-11-13T12:56:50.000Z,22.5
2022-11-13T12:58:00.000Z,22.5
2022-11-13T12:59:11.000Z,22.5
2022-11-13T13:00:21.000Z,22.5
2022-11-13T13:01:31.000Z,22.5
2022-11-13T13:02:41.000Z,22.5
2022-11-13T13:03:51.494Z,22.5
2022-11-13T13:05:01.000Z,22.5
2022-11-13T13:06:10.000Z,22.5
2022-11-13T13:07:20.000Z,22.5
2022-11-13T13:08:30.963Z,22.6
2022-11-13T13:09:41.000Z,22.6
2022-11-13T13:10:51.000Z,22.6
2022-11-13T13:12:01.000Z,22.6
2022-11-13T13:13:11.429Z,22.6
2022-11-13T13:14:21.548Z,22.6
2022-11-13T13:15:31.000Z,22.6
2022-11-13T13:16:41.000Z,22.6
2022-11-13T13:17:51.000Z,22.6
2022-11-13T13:19:02.003Z,22.6
2022-11-13T13:20:12.133Z,22.6
2022-11-13T13:21:21.252Z,22.6
2022-11-13T13:22:31.000Z,22.7
2022-11-13T13:23:41.000Z,22.7
2022-11-13T13:24:51.000Z,22.7
2022-11-13T13:26:01.715Z,22.7
2022-11-13T13:27:11.828Z,22.7
2022-11-13T13:28:21.950Z,22.7
2022-11-13T13:29:32.000Z,22.7
2022-11-13T13:30:42.000Z,22.7
2022-11-13T13:31:52.292Z,22.7
2022-11-13T13:33:02.415Z,22.7
2022-11-13T13:34:12.000Z,22.7
2022-11-13T13:35:22.000Z,22.8
2022-11-13T13:36:31.772Z,22.8
2022-11-13T13:37:41.000Z,22.8
2022-11-13T13:38:52.000Z,22.8
2022-11-13T13:40:02.121Z,22.8
2022-11-13T13:41:12.242Z,22.8
2022-11-13T13:42:22.000Z,22.8
2022-11-13T13:43:32.000Z,22.8
2022-11-13T13:44:42.000Z,22.8
2022-11-13T13:45:52.000Z,22.8
2022-11-13T13:47:02.000Z,22.8
2022-11-13T13:48:12.000Z,22.9
2022-11-13T13:49:23.000Z,22.9
2022-11-13T13:50:33.000Z,22.9
2022-11-13T13:51:42.000Z,22.9
2022-11-13T13:52:52.413Z,22.9
2022-11-13T13:54:02.000Z,22.9
2022-11-13T13:55:12.000Z,22.9
2022-11-13T13:56:22.000Z,22.9
2022-11-13T13:57:32.877Z,22.9
2022-11-13T13:58:42.000Z,22.9
2022-11-13T13:59:53.000Z,23
2022-11-13T14:01:03.228Z,22.9
2022-11-13T14:02:13.336Z,23
2022-11-13T14:03:23.000Z,23
2022-11-13T14:04:33.000Z,23
2022-11-13T14:05:43.000Z,23
2022-11-13T14:06:52.816Z,23
2022-11-13T14:08:02.000Z,23
2022-11-13T14:09:13.052Z,23
2022-11-13T14:10:23.000Z,23.1
2022-11-13T14:11:33.000Z,23.1
2022-11-13T14:12:43.399Z,23.1
2022-11-13T14:13:53.000Z,23.1
2022-11-13T14:15:03.632Z,23.1
2022-11-13T14:16:13.000Z,23.1
2022-11-13T14:17:23.000Z,23.1
2022-11-13T14:18:33.977Z,23.1
2022-11-13T14:19:44.107Z,23.1
2022-11-13T14:20:54.000Z,23.1
2022-11-13T14:22:03.000Z,23.1
2022-11-13T14:23:13.000Z,23.2
2022-11-13T14:24:23.000Z,23.2
2022-11-13T14:25:33.000Z,23.2
2022-11-13T14:26:43.809Z,23.2
2022-11-13T14:27:53.000Z,23.2
2022-11-13T14:29:04.000Z,23.2
2022-11-13T14:30:14.000Z,23.2
2022-11-13T14:31:24.000Z,23.2
2022-11-13T14:32:34.387Z,23.2
2022-11-13T14:33:44.505Z,23.2
2022-11-13T14:34:54.000Z,23.2
2022-11-13T14:36:04.000Z,23.2
2022-11-13T14:37:13.000Z,23.2
2022-11-13T14:38:23.980Z,23.2
2022-11-13T14:39:34.098Z,23.2
2022-11-13T14:40:44.000Z,23.2
2022-11-13T14:41:54.330Z,23.2
2022-11-13T14:43:04.000Z,23.2
2022-11-13T14:44:14.565Z,23.3
2022-11-13T14:45:24.677Z,23.3
2022-11-13T14:46:34.796Z,23.3
2022-11-13T14:47:44.000Z,23.3
2022-11-13T14:48:55.030Z,23.3
2022-11-13T14:50:05.143Z,23.3
2022-11-13T14:51:15.000Z,23.3
2022-11-13T14:52:24.409Z,23.3
2022-11-13T14:53:34.000Z,23.3
2022-11-13T14:54:44.620Z,23.3
2022-11-13T14:55:54.736Z,23.3
2022-11-13T14:57:04.000Z,23.3
2022-11-13T14:58:14.966Z,23.3
2022-11-13T14:59:24.106Z,23.3
2022-11-13T15:00:34.000Z,23.3
2022-11-13T15:01:44.000Z,23.3
2022-11-13T15:02:54.000Z,23.3
2022-11-13T15:04:04.000Z,23.3
2022-11-13T15:05:14.688Z,23.3
2022-11-13T15:06:24.000Z,23.3
2022-11-13T15:07:34.923Z,23.3
2022-11-13T15:08:45.000Z,23.3
2022-11-13T15:09:55.000Z,23.3
2022-11-13T15:11:05.263Z,23.2
2022-11-13T15:12:15.000Z,23.2
2022-11-13T15:13:25.496Z,23.2
2022-11-13T15:14:34.635Z,23.2
2022-11-13T15:15:44.000Z,23.2
2022-11-13T15:16:54.000Z,23.2
2022-11-13T15:18:04.000Z,23.2
2022-11-13T15:19:15.000Z,23.2
2022-11-13T15:20:25.000Z,23.2
2022-11-13T15:21:35.000Z,23.2
2022-11-13T15:22:45.000Z,23.2
2022-11-13T15:23:55.000Z,23.1
2022-11-13T15:25:05.000Z,23.1
2022-11-13T15:26:15.789Z,23.1
2022-11-13T15:27:25.000Z,23.1
2022-11-13T15:28:36.000Z,23.1
2022-11-13T15:29:45.155Z,23.1
2022-11-13T15:30:55.000Z,23.1
2022-11-13T15:32:05.382Z,23.1
2022-11-13T15:33:15.000Z,23.1
2022-11-13T15:34:25.000Z,23.1
2022-11-13T15:35:35.735Z,23.1
2022-11-13T15:36:45.000Z,23
2022-11-13T15:37:55.000Z,23
2022-11-13T15:39:06.000Z,23
2022-11-13T15:40:16.192Z,23
2022-11-13T15:41:26.000Z,23
2022-11-13T15:42:36.000Z,23
2022-11-13T15:43:46.550Z,23
2022-11-13T15:44:55.000Z,23